createdAt,value
2023-04-22T00:02:17.069Z,12.20
2023-04-22T00:04:47.442Z,12.20
2023-04-22T00:07:15.850Z,12.10
2023-04-22T00:09:42.920Z,12.20
2023-04-22T00:12:11.742Z,12.00
2023-04-22T00:14:38.865Z,12.10
2023-04-22T00:17:07.107Z,12.00
2023-04-22T00:19:34.644Z,12.00
2023-04-22T00:22:01.885Z,11.90
2023-04-22T00:24:28.881Z,12.20
2023-04-22T00:26:55.778Z,11.90
2023-04-22T00:29:22.544Z,11.90
2023-04-22T00:31:49.382Z,11.80
2023-04-22T00:34:17.842Z,11.90
2023-04-22T00:36:44.942Z,11.90
2023-04-22T00:39:12.425Z,11.90
2023-04-22T00:41:40.106Z,11.80
2023-04-22T00:44:10.916Z,11.80
2023-04-22T00:46:39.297Z,11.80
2023-04-22T00:49:08.231Z,11.70
2023-04-22T00:51:35.316Z,11.80
2023-04-22T00:54:02.216Z,11.80
2023-04-22T00:56:31.376Z,11.60
2023-04-22T00:58:58.935Z,11.60
2023-04-22T01:01:26.343Z,11.60
2023-04-22T01:03:53.913Z,12.30
2023-04-22T01:06:22.216Z,11.60
2023-04-22T01:08:48.933Z,11.70
2023-04-22T01:11:15.952Z,11.60
2023-04-22T01:13:43.154Z,11.60
2023-04-22T01:16:10.800Z,11.60
2023-04-22T01:18:37.802Z,11.60
2023-04-22T01:21:05.487Z,11.50
2023-04-22T01:23:32.726Z,11.70
2023-04-22T01:25:59.852Z,11.40
2023-04-22T01:28:26.700Z,11.50
2023-04-22T01:30:56.009Z,11.50
2023-04-22T01:33:23.302Z,11.40
2023-04-22T01:35:50.311Z,11.40
2023-04-22T01:38:17.045Z,11.40
2023-04-22T01:40:43.829Z,11.30
2023-04-22T01:43:11.044Z,11.40
2023-04-22T01:45:38.998Z,11.40
2023-04-22T01:48:06.986Z,11.30
2023-04-22T01:50:34.097Z,11.30
2023-04-22T01:53:01.100Z,11.30
2023-04-22T01:55:28.140Z,11.20
2023-04-22T01:57:54.873Z,11.10
2023-04-22T02:00:22.011Z,11.10
2023-04-22T02:02:48.863Z,11.10
2023-04-22T02:05:16.046Z,11.10
2023-04-22T02:07:45.755Z,11.10
2023-04-22T02:10:16.179Z,11.00
2023-04-22T02:12:43.087Z,11.10
2023-04-22T02:15:10.541Z,11.00
2023-04-22T02:17:37.792Z,11.10
2023-04-22T02:20:05.833Z,11.00
2023-04-22T02:22:33.074Z,11.10
2023-04-22T02:24:59.922Z,11.00
2023-04-22T02:27:26.629Z,10.90
2023-04-22T02:29:53.413Z,10.90
2023-04-22T02:32:20.190Z,10.90
2023-04-22T02:34:47.971Z,10.90
2023-04-22T02:37:15.187Z,11.00
2023-04-22T02:39:42.357Z,11.00
2023-04-22T02:42:09.206Z,10.90
2023-04-22T02:44:36.046Z,10.90
2023-04-22T02:47:03.754Z,10.90
2023-04-22T02:49:30.658Z,11.00
2023-04-22T02:51:57.648Z,10.90
2023-04-22T02:54:24.455Z,10.90
2023-04-22T02:56:51.294Z,10.90
2023-04-22T02:59:18.046Z,10.90
2023-04-22T03:01:45.085Z,10.90
2023-04-22T03:04:21.961Z,10.90
2023-04-22T03:06:49.722Z,10.90
2023-04-22T03:09:17.232Z,10.90
2023-04-22T03:11:44.460Z,10.90
2023-04-22T03:14:11.283Z,10.80
2023-04-22T03:16:38.911Z,10.80
2023-04-22T03:19:06.272Z,10.70
2023-04-22T03:21:34.460Z,10.70
2023-04-22T03:24:02.057Z,10.70
2023-04-22T03:26:32.054Z,10.60
2023-04-22T03:28:59.770Z,10.70
2023-04-22T03:31:26.592Z,10.70
2023-04-22T03:33:53.311Z,10.80
2023-04-22T03:36:28.217Z,10.80
2023-04-22T03:38:55.789Z,10.90
2023-04-22T03:41:26.420Z,10.90
2023-04-22T03:43:53.147Z,10.90
2023-04-22T03:46:21.007Z,11.00
2023-04-22T03:48:56.584Z,11.00
2023-04-22T03:51:29.233Z,11.00
2023-04-22T03:53:57.703Z,11.00
2023-04-22T03:56:26.868Z,11.10
2023-04-22T03:58:57.510Z,11.10
2023-04-22T04:01:25.276Z,11.10
2023-04-22T04:03:56.204Z,11.00
2023-04-22T04:06:25.475Z,11.00
2023-04-22T04:08:52.213Z,11.10
2023-04-22T04:11:19.138Z,11.10
2023-04-22T04:13:46.688Z,11.10
2023-04-22T04:16:39.573Z,12.00
2023-04-22T04:19:11.813Z,11.10
2023-04-22T04:21:39.461Z,11.10
2023-04-22T04:24:07.370Z,11.10
2023-04-22T04:26:39.229Z,11.10
2023-04-22T04:29:10.520Z,11.20
2023-04-22T04:31:41.609Z,11.00
2023-04-22T04:34:08.539Z,11.10
2023-04-22T04:36:39.760Z,11.90
2023-04-22T04:39:18.926Z,11.80
2023-04-22T04:41:46.308Z,11.00
2023-04-22T04:44:13.064Z,11.10
2023-04-22T04:46:40.602Z,11.10
2023-04-22T04:49:12.559Z,12.00
2023-04-22T04:51:50.102Z,11.10
2023-04-22T04:54:17.198Z,11.20
2023-04-22T04:56:43.988Z,11.10
2023-04-22T04:59:37.205Z,11.10
2023-04-22T05:02:04.387Z,11.20
2023-04-22T05:04:31.354Z,11.00
2023-04-22T05:06:58.415Z,11.10
2023-04-22T05:09:25.701Z,11.00
2023-04-22T05:11:52.528Z,11.00
2023-04-22T05:14:21.157Z,11.90
2023-04-22T05:16:48.326Z,11.20
2023-04-22T05:19:15.479Z,11.20
2023-04-22T05:21:43.056Z,11.40
2023-04-22T05:24:09.885Z,11.40
2023-04-22T05:26:36.956Z,11.50
2023-04-22T05:29:11.382Z,11.50
2023-04-22T05:31:38.181Z,11.60
2023-04-22T05:34:05.082Z,11.60
2023-04-22T05:36:32.893Z,11.70
2023-04-22T05:38:59.991Z,11.70
2023-04-22T05:41:27.362Z,11.70
2023-04-22T05:43:56.358Z,11.80
2023-04-22T05:46:23.247Z,11.80
2023-04-22T05:48:51.231Z,11.90
2023-04-22T05:51:36.302Z,11.90
2023-04-22T05:54:03.422Z,12.00
2023-04-22T05:56:30.327Z,12.00
2023-04-22T05:58:57.092Z,12.00
2023-04-22T06:01:25.001Z,12.00
2023-04-22T06:03:58.648Z,12.40
2023-04-22T06:06:27.419Z,12.40
2023-04-22T06:08:54.294Z,12.20
2023-04-22T06:11:21.031Z,12.30
2023-04-22T06:13:47.832Z,12.40
2023-04-22T06:16:16.158Z,12.40
2023-04-22T06:18:43.678Z,12.50
2023-04-22T06:21:12.369Z,12.60
2023-04-22T06:23:40.193Z,12.50
2023-04-22T06:26:07.004Z,12.70
2023-04-22T06:28:35.566Z,12.70
2023-04-22T06:31:06.742Z,12.80
2023-04-22T06:33:33.475Z,12.90
2023-04-22T06:36:01.616Z,13.10
2023-04-22T06:38:30.416Z,13.10
2023-04-22T06:41:17.536Z,13.30
2023-04-22T06:43:49.716Z,13.30
2023-04-22T06:46:17.611Z,13.50
2023-04-22T06:49:03.352Z,13.60
2023-04-22T06:51:30.973Z,13.70
2023-04-22T06:53:58.477Z,13.80
2023-04-22T06:56:25.741Z,13.90
2023-04-22T06:58:52.458Z,13.90
2023-04-22T07:01:19.546Z,14.10
2023-04-22T07:06:15.010Z,14.20
2023-04-22T07:08:42.061Z,14.30
2023-04-22T07:11:10.659Z,14.50
2023-04-22T07:13:48.987Z,14.50
2023-04-22T07:16:15.691Z,14.70
2023-04-22T07:18:42.499Z,14.60
2023-04-22T07:21:09.182Z,14.50
2023-04-22T07:23:36.062Z,14.60
2023-04-22T07:26:02.868Z,14.80
2023-04-22T07:28:29.597Z,14.80
2023-04-22T07:30:56.293Z,14.90
2023-04-22T07:33:23.046Z,15.40
2023-04-22T07:35:50.232Z,15.00
2023-04-22T07:38:17.534Z,15.10
2023-04-22T07:40:44.244Z,15.20
2023-04-22T07:43:10.973Z,15.40
2023-04-22T07:45:37.800Z,15.30
2023-04-22T07:48:04.899Z,15.50
2023-04-22T07:50:31.652Z,15.60
2023-04-22T07:52:58.420Z,15.60
2023-04-22T07:55:25.339Z,15.70
2023-04-22T07:57:52.166Z,15.70
2023-04-22T08:00:18.883Z,16.20
2023-04-22T08:02:46.957Z,15.90
2023-04-22T08:05:13.915Z,16.00
2023-04-22T08:07:40.912Z,16.10
2023-04-22T08:10:08.211Z,17.10
2023-04-22T08:12:35.262Z,16.70
2023-04-22T08:15:02.119Z,16.60
2023-04-22T08:17:29.058Z,16.80
2023-04-22T08:19:55.902Z,16.80
2023-04-22T08:22:23.771Z,17.30
2023-04-22T08:24:50.474Z,17.00
2023-04-22T08:27:19.113Z,17.30
2023-04-22T08:29:45.902Z,17.10
2023-04-22T08:32:12.677Z,17.20
2023-04-22T08:34:39.445Z,17.40
2023-04-22T08:37:06.384Z,17.20
2023-04-22T08:39:33.152Z,17.30
2023-04-22T08:41:59.919Z,17.30
2023-04-22T08:44:27.271Z,17.30
2023-04-22T08:46:55.863Z,17.40
2023-04-22T08:49:25.035Z,17.40
2023-04-22T08:51:53.042Z,17.40
2023-04-22T08:54:19.862Z,17.40
2023-04-22T08:56:46.946Z,17.40
2023-04-22T08:59:13.920Z,17.50
2023-04-22T09:01:42.177Z,17.50
2023-04-22T09:04:15.525Z,17.60
2023-04-22T09:06:42.289Z,17.60
2023-04-22T09:09:09.038Z,17.80
2023-04-22T09:11:36.526Z,17.80
2023-04-22T09:14:06.556Z,17.90
2023-04-22T09:16:40.040Z,18.00
2023-04-22T09:19:11.250Z,18.10
2023-04-22T09:21:39.090Z,18.30
2023-04-22T09:24:08.043Z,18.30
2023-04-22T09:26:38.881Z,18.40
2023-04-22T09:29:09.261Z,18.50
2023-04-22T09:31:40.738Z,18.50
2023-04-22T09:34:08.170Z,18.60
2023-04-22T09:36:37.361Z,18.40
2023-04-22T09:39:07.267Z,18.50
2023-04-22T09:41:36.222Z,19.60
2023-04-22T09:44:05.634Z,18.90
2023-04-22T09:46:33.928Z,19.00
2023-04-22T09:49:01.214Z,19.10
2023-04-22T09:51:28.992Z,19.80
2023-04-22T09:54:06.214Z,19.40
2023-04-22T09:56:52.905Z,19.60
2023-04-22T09:59:21.686Z,19.60
2023-04-22T10:01:49.520Z,19.60
2023-04-22T10:04:21.251Z,19.50
2023-04-22T10:06:49.159Z,19.60
2023-04-22T10:09:20.447Z,19.40
2023-04-22T10:11:48.967Z,19.30
2023-04-22T10:14:16.017Z,19.50
2023-04-22T10:16:47.091Z,19.60
2023-04-22T10:19:23.981Z,20.40
2023-04-22T10:22:00.561Z,19.90
2023-04-22T10:24:29.257Z,19.80
2023-04-22T10:26:58.181Z,20.00
2023-04-22T10:29:26.882Z,20.10
2023-04-22T10:31:59.539Z,19.90
2023-04-22T10:34:26.372Z,19.90
2023-04-22T10:36:58.655Z,19.80
2023-04-22T10:39:26.827Z,20.00
2023-04-22T10:42:15.348Z,20.00
2023-04-22T10:45:00.102Z,20.30
2023-04-22T10:47:35.763Z,20.40
2023-04-22T10:50:19.942Z,21.60
2023-04-22T10:52:50.440Z,20.70
2023-04-22T10:55:17.524Z,21.60
2023-04-22T10:57:46.518Z,21.30
2023-04-22T11:00:23.791Z,21.20
2023-04-22T11:03:06.237Z,21.30
2023-04-22T11:05:35.487Z,21.60
2023-04-22T11:08:06.594Z,21.70
2023-04-22T11:10:45.232Z,21.80
2023-04-22T11:13:17.742Z,21.70
2023-04-22T11:15:46.842Z,21.60
2023-04-22T11:18:17.334Z,21.80
2023-04-22T11:20:44.363Z,21.50
2023-04-22T11:23:11.112Z,21.30
2023-04-22T11:25:37.860Z,21.20
2023-04-22T11:28:04.609Z,21.20
2023-04-22T11:30:31.638Z,21.10
2023-04-22T11:33:00.638Z,21.20
2023-04-22T11:35:32.527Z,21.40
2023-04-22T11:38:00.186Z,21.70
2023-04-22T11:40:38.045Z,21.90
2023-04-22T11:43:07.108Z,21.50
2023-04-22T11:45:35.819Z,21.40
2023-04-22T11:48:04.885Z,21.00
2023-04-22T11:50:36.720Z,20.90
2023-04-22T11:53:12.589Z,20.60
2023-04-22T11:55:40.813Z,20.30
2023-04-22T11:58:14.180Z,20.10
2023-04-22T12:00:50.337Z,19.90
2023-04-22T12:03:18.558Z,19.70
2023-04-22T12:06:04.705Z,19.50
2023-04-22T12:08:44.417Z,19.40
2023-04-22T12:11:12.253Z,19.30
2023-04-22T12:13:39.120Z,19.20
2023-04-22T12:16:06.891Z,19.10
2023-04-22T12:18:38.042Z,19.20
2023-04-22T12:21:04.698Z,19.00
2023-04-22T12:23:41.178Z,19.00
2023-04-22T12:26:08.010Z,19.40
2023-04-22T12:28:34.801Z,18.90
2023-04-22T12:31:01.724Z,18.80
2023-04-22T12:33:28.481Z,18.80
2023-04-22T12:35:55.485Z,18.80
2023-04-22T12:38:22.209Z,19.00
2023-04-22T12:40:49.061Z,18.90
2023-04-22T12:43:15.804Z,18.90
2023-04-22T12:45:42.702Z,18.80
2023-04-22T12:48:09.440Z,18.70
2023-04-22T12:50:36.318Z,18.70
2023-04-22T12:53:03.250Z,18.70
2023-04-22T12:55:30.450Z,18.70
2023-04-22T12:57:57.347Z,19.40
2023-04-22T13:00:24.540Z,18.40
2023-04-22T13:02:51.578Z,18.50
2023-04-22T13:05:19.603Z,18.30
2023-04-22T13:07:53.235Z,18.30
2023-04-22T13:10:28.247Z,18.30
2023-04-22T13:12:58.541Z,18.10
2023-04-22T13:15:33.002Z,18.80
2023-04-22T13:17:59.789Z,17.90
2023-04-22T13:20:26.607Z,17.90
2023-04-22T13:22:53.732Z,17.90
2023-04-22T13:25:20.779Z,18.30
2023-04-22T13:27:47.537Z,18.00
2023-04-22T13:30:14.626Z,18.60
2023-04-22T13:32:41.389Z,18.00
2023-04-22T13:35:09.158Z,18.00
2023-04-22T13:37:36.977Z,18.00
2023-04-22T13:40:05.954Z,18.00
2023-04-22T13:42:32.850Z,18.10
2023-04-22T13:44:59.684Z,18.00
2023-04-22T13:47:26.473Z,18.60
2023-04-22T13:49:53.220Z,19.20
2023-04-22T13:52:19.943Z,18.70
2023-04-22T13:54:46.632Z,18.20
2023-04-22T13:57:13.366Z,18.40
2023-04-22T13:59:42.121Z,18.30
2023-04-22T14:02:09.198Z,18.80
2023-04-22T14:04:36.073Z,18.30
2023-04-22T14:07:04.008Z,18.20
2023-04-22T14:09:30.966Z,18.20
2023-04-22T14:11:58.230Z,18.00
2023-04-22T14:14:25.023Z,18.60
2023-04-22T14:16:52.132Z,17.90
2023-04-22T14:19:19.449Z,17.80
2023-04-22T14:21:46.274Z,17.80
2023-04-22T14:24:13.086Z,17.80
2023-04-22T14:26:39.928Z,17.90
2023-04-22T14:29:06.710Z,18.70
2023-04-22T14:31:33.422Z,17.90
2023-04-22T14:34:00.261Z,17.80
2023-04-22T14:36:27.626Z,17.80
2023-04-22T14:38:54.375Z,18.10
2023-04-22T14:41:21.575Z,17.70
2023-04-22T14:43:48.465Z,17.70
2023-04-22T14:46:15.245Z,17.70
2023-04-22T14:48:41.994Z,17.70
2023-04-22T14:51:08.702Z,18.00
2023-04-22T14:53:35.476Z,17.90
2023-04-22T14:56:02.192Z,17.90
2023-04-22T14:58:31.436Z,17.70
2023-04-22T15:00:59.865Z,17.70
2023-04-22T15:03:26.963Z,17.70
2023-04-22T15:05:54.831Z,17.70
2023-04-22T15:08:21.736Z,17.60
2023-04-22T15:10:48.452Z,17.70
2023-04-22T15:13:15.228Z,18.10
2023-04-22T15:15:42.081Z,17.60
2023-04-22T15:18:09.029Z,17.50
2023-04-22T15:20:35.810Z,18.40
2023-04-22T15:23:02.720Z,17.70
2023-04-22T15:25:29.488Z,17.40
2023-04-22T15:27:56.984Z,17.50
2023-04-22T15:30:24.173Z,17.40
2023-04-22T15:32:51.049Z,17.40
2023-04-22T15:35:18.104Z,17.30
2023-04-22T15:37:45.736Z,17.30
2023-04-22T15:40:12.469Z,17.20
2023-04-22T15:42:39.166Z,17.20
2023-04-22T15:45:06.639Z,17.10
2023-04-22T15:47:33.760Z,17.20
2023-04-22T15:50:06.649Z,17.10
2023-04-22T15:52:34.063Z,17.00
2023-04-22T15:55:01.888Z,17.00
2023-04-22T15:57:33.041Z,16.90
2023-04-22T16:00:11.964Z,16.80
2023-04-22T16:02:43.825Z,16.90
2023-04-22T16:05:11.890Z,16.80
2023-04-22T16:07:39.024Z,16.60
2023-04-22T16:10:06.654Z,16.50
2023-04-22T16:12:34.432Z,16.60
2023-04-22T16:15:01.899Z,16.50
2023-04-22T16:17:28.843Z,16.30
2023-04-22T16:19:55.725Z,16.20
2023-04-22T16:22:22.603Z,15.70
2023-04-22T16:24:49.361Z,15.60
2023-04-22T16:27:17.947Z,15.40
2023-04-22T16:29:44.781Z,15.30
2023-04-22T16:32:11.813Z,15.20
2023-04-22T16:34:38.844Z,15.20
2023-04-22T16:37:06.230Z,15.20
2023-04-22T16:39:33.530Z,15.20
2023-04-22T16:42:02.213Z,15.30
2023-04-22T16:44:28.970Z,15.20
2023-04-22T16:46:55.882Z,15.10
2023-04-22T16:49:22.574Z,15.10
2023-04-22T16:51:49.683Z,15.00
2023-04-22T16:54:16.385Z,15.10
2023-04-22T16:56:43.167Z,14.90
2023-04-22T16:59:09.847Z,15.00
2023-04-22T17:01:36.599Z,14.80
2023-04-22T17:04:03.521Z,14.70
2023-04-22T17:06:31.181Z,14.80
2023-04-22T17:08:58.123Z,14.80
2023-04-22T17:11:25.274Z,14.90
2023-04-22T17:13:52.045Z,14.90
2023-04-22T17:16:18.997Z,15.00
2023-04-22T17:18:47.044Z,15.00
2023-04-22T17:21:14.305Z,15.10
2023-04-22T17:23:41.144Z,15.10
2023-04-22T17:26:08.402Z,15.90
2023-04-22T17:28:35.530Z,15.20
2023-04-22T17:31:03.767Z,15.70
2023-04-22T17:33:31.209Z,15.40
2023-04-22T17:35:58.000Z,15.40
2023-04-22T17:38:24.748Z,15.30
2023-04-22T17:40:51.460Z,15.40
2023-04-22T17:43:18.242Z,15.30
2023-04-22T17:45:44.923Z,15.10
2023-04-22T17:48:11.603Z,15.20
2023-04-22T17:50:38.357Z,15.20
2023-04-22T17:53:05.329Z,15.00
2023-04-22T17:55:35.153Z,15.00
2023-04-22T17:58:03.136Z,15.10
2023-04-22T18:00:30.816Z,15.10
2023-04-22T18:02:57.831Z,15.00
2023-04-22T18:05:25.185Z,14.90
2023-04-22T18:07:52.436Z,14.90
2023-04-22T18:10:19.290Z,14.90
2023-04-22T18:12:45.979Z,14.90
2023-04-22T18:15:12.653Z,15.00
2023-04-22T18:17:39.457Z,14.90
2023-04-22T18:20:17.198Z,14.90
2023-04-22T18:22:49.178Z,14.90
2023-04-22T18:25:16.379Z,14.90
2023-04-22T18:27:43.467Z,14.90
2023-04-22T18:30:10.597Z,14.80
2023-04-22T18:32:37.834Z,14.90
2023-04-22T18:35:05.179Z,14.90
2023-04-22T18:37:34.404Z,14.90
2023-04-22T18:40:01.803Z,14.80
2023-04-22T18:42:28.901Z,14.70
2023-04-22T18:44:55.653Z,14.70
2023-04-22T18:47:22.486Z,14.70
2023-04-22T18:49:49.316Z,14.60
2023-04-22T18:52:17.131Z,14.60
2023-04-22T18:54:44.202Z,14.50
2023-04-22T18:57:11.115Z,14.60
2023-04-22T18:59:38.061Z,14.50
2023-04-22T19:02:06.430Z,14.30
2023-04-22T19:04:33.269Z,15.10
2023-04-22T19:07:00.172Z,14.30
2023-04-22T19:09:26.996Z,14.50
2023-04-22T19:11:53.699Z,14.20
2023-04-22T19:14:20.449Z,14.10
2023-04-22T19:16:47.170Z,14.00
2023-04-22T19:19:13.985Z,13.90
2023-04-22T19:21:41.056Z,14.00
2023-04-22T19:24:07.783Z,13.90
2023-04-22T19:26:34.485Z,13.70
2023-04-22T19:29:01.291Z,13.80
2023-04-22T19:31:29.055Z,13.90
2023-04-22T19:33:55.912Z,13.80
2023-04-22T19:36:22.688Z,14.50
2023-04-22T19:38:49.588Z,13.80
2023-04-22T19:41:16.565Z,14.00
2023-04-22T19:43:43.374Z,13.80
2023-04-22T19:46:10.318Z,13.80
2023-04-22T19:48:37.392Z,13.80
2023-04-22T19:51:05.467Z,13.90
2023-04-22T19:53:33.079Z,13.80
2023-04-22T19:55:59.895Z,14.00
2023-04-22T19:58:28.303Z,13.60
2023-04-22T20:00:55.576Z,13.50
2023-04-22T20:03:22.888Z,13.50
2023-04-22T20:05:50.394Z,13.40
2023-04-22T20:08:19.655Z,13.30
2023-04-22T20:10:49.511Z,13.20
2023-04-22T20:13:17.340Z,13.20
2023-04-22T20:15:44.699Z,13.20
2023-04-22T20:18:11.993Z,13.20
2023-04-22T20:20:40.401Z,13.20
2023-04-22T20:23:10.391Z,13.80
2023-04-22T20:25:41.955Z,12.80
2023-04-22T20:28:10.558Z,13.00
2023-04-22T20:30:37.603Z,13.00
2023-04-22T20:33:04.497Z,12.90
2023-04-22T20:35:32.003Z,12.90
2023-04-22T20:38:00.476Z,12.80
2023-04-22T20:40:28.872Z,12.80
2023-04-22T20:42:58.131Z,12.70
2023-04-22T20:45:25.839Z,12.70
2023-04-22T20:47:53.411Z,12.70
2023-04-22T20:50:22.892Z,12.60
2023-04-22T20:52:50.079Z,12.70
2023-04-22T20:55:17.022Z,12.70
2023-04-22T20:57:43.998Z,12.70
2023-04-22T21:00:11.478Z,12.60
2023-04-22T21:02:39.235Z,12.70
2023-04-22T21:05:06.698Z,12.60
2023-04-22T21:07:35.010Z,12.60
2023-04-22T21:10:02.145Z,12.60
2023-04-22T21:12:29.243Z,12.60
2023-04-22T21:14:56.223Z,12.50
2023-04-22T21:17:26.988Z,12.50
2023-04-22T21:19:56.946Z,12.60
2023-04-22T21:22:24.940Z,12.50
2023-04-22T21:24:52.764Z,12.50
2023-04-22T21:27:22.012Z,12.50
2023-04-22T21:29:49.653Z,12.50
2023-04-22T21:32:17.436Z,12.40
2023-04-22T21:34:44.904Z,12.60
2023-04-22T21:37:12.547Z,12.40
2023-04-22T21:39:40.320Z,12.40
2023-04-22T21:42:10.443Z,12.70
2023-04-22T21:44:37.989Z,12.30
2023-04-22T21:47:05.747Z,12.30
2023-04-22T21:49:32.603Z,12.50
2023-04-22T21:51:59.614Z,12.20
2023-04-22T21:54:26.433Z,12.20
2023-04-22T21:56:53.274Z,12.00
2023-04-22T21:59:20.110Z,12.10
2023-04-22T22:01:46.989Z,12.00
2023-04-22T22:04:16.022Z,12.10
2023-04-22T22:06:43.884Z,12.10
2023-04-22T22:09:11.469Z,12.90
2023-04-22T22:11:38.181Z,12.10
2023-04-22T22:14:05.069Z,12.00
2023-04-22T22:16:31.968Z,12.00
2023-04-22T22:18:58.721Z,12.00
2023-04-22T22:21:25.551Z,12.10
2023-04-22T22:23:52.403Z,12.00
2023-04-22T22:26:19.434Z,12.10
2023-04-22T22:28:46.383Z,12.10
2023-04-22T22:31:13.183Z,12.20
2023-04-22T22:33:40.160Z,12.20
2023-04-22T22:36:07.053Z,12.10
2023-04-22T22:38:33.859Z,12.30
2023-04-22T22:41:00.641Z,12.10
2023-04-22T22:43:27.467Z,12.20
2023-04-22T22:45:54.281Z,12.20
2023-04-22T22:48:21.228Z,12.20
2023-04-22T22:50:48.875Z,12.10
2023-04-22T22:53:15.637Z,12.20
2023-04-22T22:55:42.333Z,12.10
2023-04-22T22:58:09.070Z,12.20
2023-04-22T23:00:36.234Z,12.90
2023-04-22T23:03:03.877Z,12.20
2023-04-22T23:05:31.008Z,12.60
2023-04-22T23:07:57.730Z,12.10
2023-04-22T23:10:24.494Z,12.10
2023-04-22T23:12:51.326Z,12.20
2023-04-22T23:15:18.103Z,12.10
2023-04-22T23:17:44.981Z,12.20
2023-04-22T23:20:12.221Z,12.20
2023-04-22T23:22:42.707Z,12.20
2023-04-22T23:25:10.291Z,12.20
2023-04-22T23:27:37.385Z,12.20
2023-04-22T23:30:05.207Z,12.20
2023-04-22T23:32:32.915Z,12.20
2023-04-22T23:35:01.626Z,12.10
2023-04-22T23:37:29.462Z,12.20
2023-04-22T23:39:56.251Z,12.10
2023-04-22T23:42:23.051Z,12.10
2023-04-22T23:44:49.878Z,13.00
2023-04-22T23:47:16.936Z,12.10
2023-04-22T23:49:43.938Z,12.10
2023-04-22T23:52:12.706Z,12.10
2023-04-22T23:54:40.403Z,12.10
2023-04-22T23:57:07.694Z,12.20
2023-04-22T23:59:34.667Z,12.20
